Katrina — V2DW3 — position and weather

sailwx.info

Track history (hours):
 
Tides and Currents Weather Stations Pressure Air Temp Water Temp Dewpoint Dewpoint Depression Visibility Wind Speed Wind Dir Waves Ship Positions

Katrina

Last reported at 2018-Feb-19 08:00 UTC. Time now 2018-Feb-19 08:03 UTC.
Position N 34°32' E 134°42'.

Length 133 m; draft 7.3 m.

MMSI: 305354000.

Date/timePositionNaut miles runAvg speedWind from/ knotsBaromVisibWave heightAir tempDewpointWater temp
2018-Feb-19 08:00N 34°32' E 134°42'612.3
2018-Feb-19 07:30N 34°34' E 134°49'611.4
2018-Feb-19 06:57N 34°37' E 134°56'510.3
2018-Feb-19 06:31N 34°37' E 135°02'510.6
2018-Feb-19 06:00N 34°36' E 135°08'613.1
2018-Feb-19 05:30N 34°37' E 135°15'3 5.6
2018-Feb-19 04:59N 34°40' E 135°14'0 0.0
2018-Feb-19 04:29N 34°40' E 135°14'0 0.0
2018-Feb-19 03:59N 34°40' E 135°14'0 0.0
2018-Feb-19 03:29N 34°40' E 135°14'0 0.0
2018-Feb-19 02:59N 34°40' E 135°14'0 0.0
2018-Feb-19 02:29N 34°40' E 135°14'0 0.0
2018-Feb-19 01:59N 34°40' E 135°14'0 0.0
2018-Feb-19 01:29N 34°40' E 135°14'0 0.0
2018-Feb-19 00:59N 34°40' E 135°14'0 0.0
2018-Feb-19 00:30N 34°40' E 135°14'0 0.0
2018-Feb-19 00:00N 34°40' E 135°14'0 0.0
2018-Feb-18 23:30N 34°40' E 135°14'0 0.0
2018-Feb-18 23:00N 34°40' E 135°14'0 0.0
2018-Feb-18 22:30N 34°40' E 135°14'1 1.8
2018-Feb-18 22:00N 34°39' E 135°15'610.8
2018-Feb-18 21:29N 34°37' E 135°21'3 5.6
2018-Feb-18 20:58N 34°39' E 135°24'0 0.1
2018-Feb-18 20:28N 34°39' E 135°24'0 0.0
2018-Feb-18 19:58N 34°39' E 135°24'0 0.0
2018-Feb-18 19:27N 34°39' E 135°24'0 0.0
2018-Feb-18 18:57N 34°39' E 135°24'0 0.1
2018-Feb-18 18:27N 34°39' E 135°24'0 0.1
2018-Feb-18 17:51N 34°39' E 135°24'0 0.0
2018-Feb-18 17:27N 34°39' E 135°24'0 0.0
2018-Feb-18 16:57N 34°39' E 135°24'0 0.0
2018-Feb-18 16:27N 34°39' E 135°24'0 0.0
2018-Feb-18 15:57N 34°39' E 135°24'0 0.0
2018-Feb-18 15:27N 34°39' E 135°24'0 0.0
2018-Feb-18 15:00N 34°39' E 135°24'0 0.0
2018-Feb-18 14:27N 34°39' E 135°24'0 0.1
2018-Feb-18 13:57N 34°39' E 135°24'0 0.0
2018-Feb-18 13:30N 34°39' E 135°24'0 0.1
2018-Feb-18 13:00N 34°39' E 135°24'0 0.0
2018-Feb-18 12:30N 34°39' E 135°24'0 0.0
2018-Feb-18 12:00N 34°39' E 135°24'0 0.0
2018-Feb-18 11:27N 34°39' E 135°24'0 0.0
2018-Feb-18 10:57N 34°39' E 135°24'0 0.0
2018-Feb-18 10:30N 34°39' E 135°24'0 0.4
2018-Feb-18 10:00N 34°39' E 135°24'510.8
2018-Feb-18 09:30N 34°36' E 135°19'713.4
2018-Feb-18 09:00N 34°35' E 135°11'612.7
2018-Feb-18 08:31N 34°36' E 135°03'713.3
2018-Feb-18 08:00N 34°35' E 134°55'815.1
2018-Feb-18 07:30N 34°33' E 134°47'714.7
2018-Feb-18 07:01N 34°30' E 134°38'714.1
2018-Feb-18 06:30N 34°27' E 134°30'714.1
2018-Feb-18 06:00N 34°24' E 134°22'713.5
2018-Feb-18 05:29N 34°24' E 134°14'7613.1
2018-Feb-17 23:39N 34°01' E 132°46'217.1
2018-Feb-17 23:31N 33°59' E 132°44'916.5
2018-Feb-17 22:58N 33°53' E 132°37'715.6
2018-Feb-17 22:31N 33°48' E 132°30'815.2
2018-Feb-17 22:00N 33°45' E 132°22'2014.4
2018-Feb-17 20:38N 33°43' E 131°58'214.5
2018-Feb-17 20:30N 33°43' E 131°56'714.8
2018-Feb-17 20:00N 33°45' E 131°47'815.4
2018-Feb-17 19:30N 33°46' E 131°38'815.2
2018-Feb-17 19:00N 33°48' E 131°29'815.3
2018-Feb-17 18:30N 33°50' E 131°20'815.7
2018-Feb-17 18:00N 33°52' E 131°11'815.4
2018-Feb-17 17:30N 33°56' E 131°04'611.6
2018-Feb-17 17:00N 33°57' E 130°57'4 8.0
2018-Feb-17 16:30N 33°57' E 130°52'611.9
2018-Feb-17 16:00N 34°02' E 130°47'714.9
2018-Feb-17 15:30N 34°02' E 130°38'815.2
2018-Feb-17 15:00N 34°01' E 130°29'815.3
2018-Feb-17 14:30N 34°02' E 130°20'815.3
2018-Feb-17 14:00N 34°02' E 130°11'815.2
2018-Feb-17 13:30N 34°02' E 130°02'45510.7
2018-Feb-15 18:52N 31°22' E 121°36'2 4.3
2018-Feb-15 18:26N 31°22' E 121°38'19 9.8
2018-Feb-15 16:27N 31°08' E 121°54'612.4
2018-Feb-15 15:59N 31°05' E 122°00'612.4
2018-Feb-15 15:30N 31°04' E 122°07'33 1.4
2018-Feb-14 16:02N 31°09' E 122°45'0 0.2
2018-Feb-14 15:56N 31°09' E 122°45'0 0.1
2018-Feb-14 15:08N 31°09' E 122°45'0 0.0
2018-Feb-14 14:44N 31°09' E 122°45'0 0.0
2018-Feb-14 14:29N 31°09' E 122°45'0 0.0
2018-Feb-14 01:31N 31°09' E 122°45'0 0.9
2018-Feb-14 01:20N 31°09' E 122°45'40312.2
2018-Feb-12 16:15N 34°02' E 129°58'311.1
2018-Feb-12 15:57N 34°02' E 130°02'510.7
2018-Feb-12 15:30N 34°02' E 130°08'510.8
2018-Feb-12 15:00N 34°02' E 130°14'510.6
2018-Feb-12 14:30N 34°02' E 130°21'510.2
2018-Feb-12 14:00N 34°02' E 130°27'510.2
2018-Feb-12 13:30N 34°03' E 130°33'510.4
2018-Feb-12 13:00N 34°03' E 130°39'510.6
2018-Feb-12 12:30N 34°02' E 130°46'510.7
2018-Feb-12 12:00N 34°00' E 130°52'511.0
2018-Feb-12 11:31N 33°55' E 130°54'611.3
2018-Feb-12 10:59N 33°59' E 130°59'612.1
2018-Feb-12 10:30N 33°56' E 131°05'613.0
2018-Feb-12 10:00N 33°52' E 131°12'612.8
2018-Feb-12 09:30N 33°51' E 131°19'612.9
2018-Feb-12 09:01N 33°49' E 131°27'713.1
2018-Feb-12 08:31N 33°48' E 131°34'713.2
2018-Feb-12 08:00N 33°46' E 131°42'713.1
2018-Feb-12 07:31N 33°45' E 131°50'1812.6
2018-Feb-12 06:07N 33°42' E 132°11'212.9
2018-Feb-12 05:57N 33°43' E 132°13'913.6
2018-Feb-12 05:18N 33°46' E 132°23'514.3
2018-Feb-12 04:57N 33°47' E 132°29'1014.0
2018-Feb-12 04:15N 33°51' E 132°40'1 1.8
2018-Feb-12 03:25N 33°51' E 132°42'0 0.0
2018-Feb-12 02:34N 33°51' E 132°42'0 0.0
2018-Feb-12 02:30N 33°51' E 132°42'1 2.2
2018-Feb-12 02:00N 33°52' E 132°42'612.8
2018-Feb-12 01:30N 33°58' E 132°43'7611.7
2018-Feb-11 19:01N 34°26' E 134°08'113.4
2018-Feb-11 18:58N 34°26' E 134°09'612.9
2018-Feb-11 18:30N 34°24' E 134°16'613.1
2018-Feb-11 18:00N 34°25' E 134°24'713.7
2018-Feb-11 17:30N 34°28' E 134°31'713.4
2018-Feb-11 17:01N 34°30' E 134°39'713.1
2018-Feb-11 16:31N 34°33' E 134°46'612.4
2018-Feb-11 16:01N 34°35' E 134°53'611.5
2018-Feb-11 15:29N 34°38' E 134°60'510.6
2018-Feb-11 15:00N 34°35' E 135°05'612.5
2018-Feb-11 14:30N 34°36' E 135°13'4 8.0
2018-Feb-11 14:00N 34°40' E 135°15'0 0.8
2018-Feb-11 13:28N 34°40' E 135°14'0 0.0
2018-Feb-11 12:58N 34°40' E 135°14'0 0.0
2018-Feb-11 12:28N 34°40' E 135°14'0 0.0
2018-Feb-11 11:58N 34°40' E 135°14'0 0.0
2018-Feb-11 11:28N 34°40' E 135°14'0 0.0
2018-Feb-11 10:58N 34°40' E 135°14'0 0.0
2018-Feb-11 10:28N 34°40' E 135°14'0 0.0
2018-Feb-11 09:58N 34°40' E 135°14'0 0.0
2018-Feb-11 09:28N 34°40' E 135°14'0 0.0
2018-Feb-11 08:58N 34°40' E 135°14'1 1.1
2018-Feb-11 08:30N 34°40' E 135°15'510.5
2018-Feb-11 08:00N 34°37' E 135°20'4 7.8
2018-Feb-11 07:30N 34°39' E 135°24'0 0.0
2018-Feb-11 06:59N 34°39' E 135°24'0 0.0
2018-Feb-11 06:29N 34°39' E 135°24'0 0.0
2018-Feb-11 05:59N 34°39' E 135°24'0 0.0
2018-Feb-11 05:29N 34°39' E 135°24'0 0.0
2018-Feb-11 04:59N 34°39' E 135°24'0 0.0
2018-Feb-11 04:29N 34°39' E 135°24'0 0.0
2018-Feb-11 03:59N 34°39' E 135°24'0 0.0
2018-Feb-11 03:20N 34°39' E 135°24'0 0.1
2018-Feb-11 02:59N 34°39' E 135°24'0 0.0
2018-Feb-11 02:30N 34°39' E 135°24'0 0.1
2018-Feb-11 01:56N 34°39' E 135°24'0 0.0
2018-Feb-11 01:29N 34°39' E 135°24'0 0.0
2018-Feb-11 00:56N 34°39' E 135°24'0 0.0
2018-Feb-11 00:26N 34°39' E 135°24'0 0.0
2018-Feb-10 23:56N 34°39' E 135°24'0 0.0
2018-Feb-10 23:29N 34°39' E 135°24'0 0.0
2018-Feb-10 22:56N 34°39' E 135°24'0 0.0
2018-Feb-10 22:29N 34°39' E 135°24'1 1.5
2018-Feb-10 22:01N 34°39' E 135°24'612.2
2018-Feb-10 21:31N 34°36' E 135°17'713.9
2018-Feb-10 21:00N 34°35' E 135°09'612.4
2018-Feb-10 20:30N 34°37' E 135°02'611.6
2018-Feb-10 20:00N 34°35' E 134°55'612.6
2018-Feb-10 19:30N 34°33' E 134°48'612.9
2018-Feb-10 19:00N 34°30' E 134°41'613.0
2018-Feb-10 18:31N 34°28' E 134°33'612.9
2018-Feb-10 18:00N 34°26' E 134°26'612.8
2018-Feb-10 17:30N 34°24' E 134°18'8012.6
2018-Feb-10 11:09N 34°01' E 132°46'213.5
2018-Feb-10 10:59N 33°59' E 132°44'913.7
2018-Feb-10 10:18N 33°52' E 132°36'413.9
2018-Feb-10 10:00N 33°49' E 132°33'814.0
2018-Feb-10 09:28N 33°46' E 132°25'714.3
2018-Feb-10 08:59N 33°43' E 132°17'1713.9
2018-Feb-10 07:45N 33°43' E 131°57'414.3
2018-Feb-10 07:29N 33°44' E 131°52'714.4
2018-Feb-10 07:00N 33°45' E 131°44'714.3
2018-Feb-10 06:30N 33°47' E 131°35'714.4
2018-Feb-10 06:00N 33°49' E 131°27'714.3
2018-Feb-10 05:30N 33°50' E 131°19'713.9
2018-Feb-10 05:01N 33°52' E 131°11'714.1
2018-Feb-10 04:31N 33°56' E 131°04'611.5
2018-Feb-10 04:00N 33°57' E 130°57'4 8.6
2018-Feb-10 03:30N 33°56' E 130°52'611.3
2018-Feb-10 03:00N 34°02' E 130°49'713.4
2018-Feb-10 02:30N 34°02' E 130°41'714.4
2018-Feb-10 02:00N 34°02' E 130°33'714.2
2018-Feb-10 01:30N 34°02' E 130°24'714.5
2018-Feb-10 01:00N 34°02' E 130°15'714.3
2018-Feb-10 00:30N 34°02' E 130°07'714.1
2018-Feb-10 00:00N 34°02' E 129°58'  
Track history (hours):
 
Tides and Currents Weather Stations Pressure Air Temp Water Temp Dewpoint Dewpoint Depression Visibility Wind Speed Wind Dir Waves Ship Positions

Katrina

Last reported at 2018-Feb-19 08:00 UTC. Time now 2018-Feb-19 08:03 UTC.
Position N 34°32' E 134°42'.

Length 133 m; draft 7.3 m.

MMSI: 305354000.

Date/timePositionNaut miles runAvg speedWind from/ knotsBaromVisibWave heightAir tempDewpointWater temp
2018-Feb-19 08:00N 34°32' E 134°42'612.3
2018-Feb-19 07:30N 34°34' E 134°49'611.4
2018-Feb-19 06:57N 34°37' E 134°56'510.3
2018-Feb-19 06:31N 34°37' E 135°02'510.6
2018-Feb-19 06:00N 34°36' E 135°08'613.1
2018-Feb-19 05:30N 34°37' E 135°15'3 5.6
2018-Feb-19 04:59N 34°40' E 135°14'0 0.0
2018-Feb-19 04:29N 34°40' E 135°14'0 0.0
2018-Feb-19 03:59N 34°40' E 135°14'0 0.0
2018-Feb-19 03:29N 34°40' E 135°14'0 0.0
2018-Feb-19 02:59N 34°40' E 135°14'0 0.0
2018-Feb-19 02:29N 34°40' E 135°14'0 0.0
2018-Feb-19 01:59N 34°40' E 135°14'0 0.0
2018-Feb-19 01:29N 34°40' E 135°14'0 0.0
2018-Feb-19 00:59N 34°40' E 135°14'0 0.0
2018-Feb-19 00:30N 34°40' E 135°14'0 0.0
2018-Feb-19 00:00N 34°40' E 135°14'0 0.0
2018-Feb-18 23:30N 34°40' E 135°14'0 0.0
2018-Feb-18 23:00N 34°40' E 135°14'0 0.0
2018-Feb-18 22:30N 34°40' E 135°14'1 1.8
2018-Feb-18 22:00N 34°39' E 135°15'610.8
2018-Feb-18 21:29N 34°37' E 135°21'3 5.6
2018-Feb-18 20:58N 34°39' E 135°24'0 0.1
2018-Feb-18 20:28N 34°39' E 135°24'0 0.0
2018-Feb-18 19:58N 34°39' E 135°24'0 0.0
2018-Feb-18 19:27N 34°39' E 135°24'0 0.0
2018-Feb-18 18:57N 34°39' E 135°24'0 0.1
2018-Feb-18 18:27N 34°39' E 135°24'0 0.1
2018-Feb-18 17:51N 34°39' E 135°24'0 0.0
2018-Feb-18 17:27N 34°39' E 135°24'0 0.0
2018-Feb-18 16:57N 34°39' E 135°24'0 0.0
2018-Feb-18 16:27N 34°39' E 135°24'0 0.0
2018-Feb-18 15:57N 34°39' E 135°24'0 0.0
2018-Feb-18 15:27N 34°39' E 135°24'0 0.0
2018-Feb-18 15:00N 34°39' E 135°24'0 0.0
2018-Feb-18 14:27N 34°39' E 135°24'0 0.1
2018-Feb-18 13:57N 34°39' E 135°24'0 0.0
2018-Feb-18 13:30N 34°39' E 135°24'0 0.1
2018-Feb-18 13:00N 34°39' E 135°24'0 0.0
2018-Feb-18 12:30N 34°39' E 135°24'0 0.0
2018-Feb-18 12:00N 34°39' E 135°24'0 0.0
2018-Feb-18 11:27N 34°39' E 135°24'0 0.0
2018-Feb-18 10:57N 34°39' E 135°24'0 0.0
2018-Feb-18 10:30N 34°39' E 135°24'0 0.4
2018-Feb-18 10:00N 34°39' E 135°24'510.8
2018-Feb-18 09:30N 34°36' E 135°19'713.4
2018-Feb-18 09:00N 34°35' E 135°11'612.7
2018-Feb-18 08:31N 34°36' E 135°03'713.3
2018-Feb-18 08:00N 34°35' E 134°55'815.1
2018-Feb-18 07:30N 34°33' E 134°47'714.7
2018-Feb-18 07:01N 34°30' E 134°38'714.1
2018-Feb-18 06:30N 34°27' E 134°30'714.1
2018-Feb-18 06:00N 34°24' E 134°22'713.5
2018-Feb-18 05:29N 34°24' E 134°14'7613.1
2018-Feb-17 23:39N 34°01' E 132°46'217.1
2018-Feb-17 23:31N 33°59' E 132°44'916.5
2018-Feb-17 22:58N 33°53' E 132°37'715.6
2018-Feb-17 22:31N 33°48' E 132°30'815.2
2018-Feb-17 22:00N 33°45' E 132°22'2014.4
2018-Feb-17 20:38N 33°43' E 131°58'214.5
2018-Feb-17 20:30N 33°43' E 131°56'714.8
2018-Feb-17 20:00N 33°45' E 131°47'815.4
2018-Feb-17 19:30N 33°46' E 131°38'815.2
2018-Feb-17 19:00N 33°48' E 131°29'815.3
2018-Feb-17 18:30N 33°50' E 131°20'815.7
2018-Feb-17 18:00N 33°52' E 131°11'815.4
2018-Feb-17 17:30N 33°56' E 131°04'611.6
2018-Feb-17 17:00N 33°57' E 130°57'4 8.0
2018-Feb-17 16:30N 33°57' E 130°52'611.9
2018-Feb-17 16:00N 34°02' E 130°47'714.9
2018-Feb-17 15:30N 34°02' E 130°38'815.2
2018-Feb-17 15:00N 34°01' E 130°29'815.3
2018-Feb-17 14:30N 34°02' E 130°20'815.3
2018-Feb-17 14:00N 34°02' E 130°11'815.2
2018-Feb-17 13:30N 34°02' E 130°02'45510.7
2018-Feb-15 18:52N 31°22' E 121°36'2 4.3
2018-Feb-15 18:26N 31°22' E 121°38'19 9.8
2018-Feb-15 16:27N 31°08' E 121°54'612.4
2018-Feb-15 15:59N 31°05' E 122°00'612.4
2018-Feb-15 15:30N 31°04' E 122°07'33 1.4
2018-Feb-14 16:02N 31°09' E 122°45'0 0.2
2018-Feb-14 15:56N 31°09' E 122°45'0 0.1
2018-Feb-14 15:08N 31°09' E 122°45'0 0.0
2018-Feb-14 14:44N 31°09' E 122°45'0 0.0
2018-Feb-14 14:29N 31°09' E 122°45'0 0.0
2018-Feb-14 01:31N 31°09' E 122°45'0 0.9
2018-Feb-14 01:20N 31°09' E 122°45'40312.2
2018-Feb-12 16:15N 34°02' E 129°58'311.1
2018-Feb-12 15:57N 34°02' E 130°02'510.7
2018-Feb-12 15:30N 34°02' E 130°08'510.8
2018-Feb-12 15:00N 34°02' E 130°14'510.6
2018-Feb-12 14:30N 34°02' E 130°21'510.2
2018-Feb-12 14:00N 34°02' E 130°27'510.2
2018-Feb-12 13:30N 34°03' E 130°33'510.4
2018-Feb-12 13:00N 34°03' E 130°39'510.6
2018-Feb-12 12:30N 34°02' E 130°46'510.7
2018-Feb-12 12:00N 34°00' E 130°52'511.0
2018-Feb-12 11:31N 33°55' E 130°54'611.3
2018-Feb-12 10:59N 33°59' E 130°59'612.1
2018-Feb-12 10:30N 33°56' E 131°05'613.0
2018-Feb-12 10:00N 33°52' E 131°12'612.8
2018-Feb-12 09:30N 33°51' E 131°19'612.9
2018-Feb-12 09:01N 33°49' E 131°27'713.1
2018-Feb-12 08:31N 33°48' E 131°34'713.2
2018-Feb-12 08:00N 33°46' E 131°42'713.1
2018-Feb-12 07:31N 33°45' E 131°50'1812.6
2018-Feb-12 06:07N 33°42' E 132°11'212.9
2018-Feb-12 05:57N 33°43' E 132°13'913.6
2018-Feb-12 05:18N 33°46' E 132°23'514.3
2018-Feb-12 04:57N 33°47' E 132°29'1014.0
2018-Feb-12 04:15N 33°51' E 132°40'1 1.8
2018-Feb-12 03:25N 33°51' E 132°42'0 0.0
2018-Feb-12 02:34N 33°51' E 132°42'0 0.0
2018-Feb-12 02:30N 33°51' E 132°42'1 2.2
2018-Feb-12 02:00N 33°52' E 132°42'612.8
2018-Feb-12 01:30N 33°58' E 132°43'7611.7
2018-Feb-11 19:01N 34°26' E 134°08'113.4
2018-Feb-11 18:58N 34°26' E 134°09'612.9
2018-Feb-11 18:30N 34°24' E 134°16'613.1
2018-Feb-11 18:00N 34°25' E 134°24'713.7
2018-Feb-11 17:30N 34°28' E 134°31'713.4
2018-Feb-11 17:01N 34°30' E 134°39'713.1
2018-Feb-11 16:31N 34°33' E 134°46'612.4
2018-Feb-11 16:01N 34°35' E 134°53'611.5
2018-Feb-11 15:29N 34°38' E 134°60'510.6
2018-Feb-11 15:00N 34°35' E 135°05'612.5
2018-Feb-11 14:30N 34°36' E 135°13'4 8.0
2018-Feb-11 14:00N 34°40' E 135°15'0 0.8
2018-Feb-11 13:28N 34°40' E 135°14'0 0.0
2018-Feb-11 12:58N 34°40' E 135°14'0 0.0
2018-Feb-11 12:28N 34°40' E 135°14'0 0.0
2018-Feb-11 11:58N 34°40' E 135°14'0 0.0
2018-Feb-11 11:28N 34°40' E 135°14'0 0.0
2018-Feb-11 10:58N 34°40' E 135°14'0 0.0
2018-Feb-11 10:28N 34°40' E 135°14'0 0.0
2018-Feb-11 09:58N 34°40' E 135°14'0 0.0
2018-Feb-11 09:28N 34°40' E 135°14'0 0.0
2018-Feb-11 08:58N 34°40' E 135°14'1 1.1
2018-Feb-11 08:30N 34°40' E 135°15'510.5
2018-Feb-11 08:00N 34°37' E 135°20'4 7.8
2018-Feb-11 07:30N 34°39' E 135°24'0 0.0
2018-Feb-11 06:59N 34°39' E 135°24'0 0.0
2018-Feb-11 06:29N 34°39' E 135°24'0 0.0
2018-Feb-11 05:59N 34°39' E 135°24'0 0.0
2018-Feb-11 05:29N 34°39' E 135°24'0 0.0
2018-Feb-11 04:59N 34°39' E 135°24'0 0.0
2018-Feb-11 04:29N 34°39' E 135°24'0 0.0
2018-Feb-11 03:59N 34°39' E 135°24'0 0.0
2018-Feb-11 03:20N 34°39' E 135°24'0 0.1
2018-Feb-11 02:59N 34°39' E 135°24'0 0.0
2018-Feb-11 02:30N 34°39' E 135°24'0 0.1
2018-Feb-11 01:56N 34°39' E 135°24'0 0.0
2018-Feb-11 01:29N 34°39' E 135°24'0 0.0
2018-Feb-11 00:56N 34°39' E 135°24'0 0.0
2018-Feb-11 00:26N 34°39' E 135°24'0 0.0
2018-Feb-10 23:56N 34°39' E 135°24'0 0.0
2018-Feb-10 23:29N 34°39' E 135°24'0 0.0
2018-Feb-10 22:56N 34°39' E 135°24'0 0.0
2018-Feb-10 22:29N 34°39' E 135°24'1 1.5
2018-Feb-10 22:01N 34°39' E 135°24'612.2
2018-Feb-10 21:31N 34°36' E 135°17'713.9
2018-Feb-10 21:00N 34°35' E 135°09'612.4
2018-Feb-10 20:30N 34°37' E 135°02'611.6
2018-Feb-10 20:00N 34°35' E 134°55'612.6
2018-Feb-10 19:30N 34°33' E 134°48'612.9
2018-Feb-10 19:00N 34°30' E 134°41'613.0
2018-Feb-10 18:31N 34°28' E 134°33'612.9
2018-Feb-10 18:00N 34°26' E 134°26'612.8
2018-Feb-10 17:30N 34°24' E 134°18'8012.6
2018-Feb-10 11:09N 34°01' E 132°46'213.5
2018-Feb-10 10:59N 33°59' E 132°44'913.7
2018-Feb-10 10:18N 33°52' E 132°36'413.9
2018-Feb-10 10:00N 33°49' E 132°33'814.0
2018-Feb-10 09:28N 33°46' E 132°25'714.3
2018-Feb-10 08:59N 33°43' E 132°17'1713.9
2018-Feb-10 07:45N 33°43' E 131°57'414.3
2018-Feb-10 07:29N 33°44' E 131°52'714.4
2018-Feb-10 07:00N 33°45' E 131°44'714.3
2018-Feb-10 06:30N 33°47' E 131°35'714.4
2018-Feb-10 06:00N 33°49' E 131°27'714.3
2018-Feb-10 05:30N 33°50' E 131°19'713.9
2018-Feb-10 05:01N 33°52' E 131°11'714.1
2018-Feb-10 04:31N 33°56' E 131°04'611.5
2018-Feb-10 04:00N 33°57' E 130°57'4 8.6
2018-Feb-10 03:30N 33°56' E 130°52'611.3
2018-Feb-10 03:00N 34°02' E 130°49'713.4
2018-Feb-10 02:30N 34°02' E 130°41'714.4
2018-Feb-10 02:00N 34°02' E 130°33'714.2
2018-Feb-10 01:30N 34°02' E 130°24'714.5
2018-Feb-10 01:00N 34°02' E 130°15'714.3
2018-Feb-10 00:30N 34°02' E 130°07'714.1
2018-Feb-10 00:00N 34°02' E 129°58'  

Dump ship's entire track history